logo
Rechercher aéroport 
image banner adimage banner adimage banner ad
image banner ad

LTFO - Rize-Artvin

Situé à Rize-Artvin, Turkey

ICAO - , IATA - RZV

Données fournies par Airmate  

Information générale

Coordonnées: N41°10'47" E40°50'56"
Élévation : 16 feet MSL.
Variation magnétique : 6.7° East
Voir autres Aéroports à Trabzon

Données opérationnelles

Special qualification required
Heure actuelle UTC:
Heure actuelle locale:
Météo à : UGSB - Batumi ( 79 km )
METAR: UGSB 230030Z 13006KT CAVOK 14/12 Q1011 NOSIG
TAF: TAF UGSB 222300Z 2300/2324 13010KT CAVOK TX21/2312Z TN13/2301Z BECMG 2305/2307 25007KT BECMG 2318/2321 13010KT
Voir NOTAMs / SUP AIP / TFR affectant cet aéroport [VIEW]
Fréquences de communication: [VIEW]

Pistes:

Identifiant RWYQFULongueur (ft)Largeur (ft)SurfaceLDA (ft)
0670°9843148ASPH9843
24250°9843148ASPH9843

Coordonnées de l'aéroport

Adresse: Rize-Artvin Turkey

Vue satellite de LTFO